Time;durP1;ratioP1;P1;durP2;ratioP2;P2;SDS_P1;SDS_P2;PMS_P1;PMS_P2;Temp;Humidity;BMP_temperature;BMP_pressure;BME280_temperature;BME280_humidity;BME280_pressure;Samples;Min_cycle;Max_cycle;Signal;HPM_P1;HPM_P2
2023/11/29 00:00:43;;;;;;;86.18;13.60;;;7.00;95.50;;;;;;4968793;28;20040;-51
2023/11/29 00:03:08;;;;;;;82.07;13.38;;;6.90;95.50;;;;;;4967589;29;20031;-52
2023/11/29 00:05:36;;;;;;;75.40;13.05;;;6.90;95.60;;;;;;4951491;29;20023;-51
2023/11/29 00:08:04;;;;;;;93.28;15.05;;;6.90;95.60;;;;;;4968703;28;20043;-51
2023/11/29 00:10:33;;;;;;;79.75;13.98;;;6.90;95.50;;;;;;4968493;28;20030;-52
2023/11/29 00:12:58;;;;;;;77.63;14.63;;;6.80;95.50;;;;;;4967328;28;20066;-51
2023/11/29 00:15:24;;;;;;;82.45;12.48;;;6.80;95.50;;;;;;4967135;29;20023;-51
2023/11/29 00:17:50;;;;;;;72.68;12.95;;;6.80;95.50;;;;;;4951178;29;20042;-51
2023/11/29 00:20:15;;;;;;;60.55;10.65;;;6.80;95.50;;;;;;4967356;29;20046;-51
2023/11/29 00:22:41;;;;;;;60.88;10.73;;;6.70;95.40;;;;;;4983276;28;20031;-51
2023/11/29 00:25:07;;;;;;;54.65;10.77;;;6.70;95.40;;;;;;4951235;29;20380;-51
2023/11/29 00:27:33;;;;;;;79.03;12.68;;;6.70;95.30;;;;;;4967047;29;20035;-52
2023/11/29 00:29:58;;;;;;;66.13;11.93;;;6.70;95.40;;;;;;4968135;28;20030;-51
2023/11/29 00:32:24;;;;;;;85.80;13.05;;;6.60;95.40;;;;;;4968392;28;20526;-51
2023/11/29 00:34:49;;;;;;;71.40;11.85;;;6.60;95.40;;;;;;4967685;28;20115;-51
2023/11/29 00:37:15;;;;;;;64.65;11.10;;;6.60;95.40;;;;;;4967716;28;20031;-52
2023/11/29 00:39:41;;;;;;;74.05;11.23;;;6.60;95.40;;;;;;4966883;29;20106;-51
2023/11/29 00:42:06;;;;;;;56.10;11.88;;;6.60;95.40;;;;;;4967820;28;20039;-51
2023/11/29 00:44:32;;;;;;;61.20;11.02;;;6.60;95.30;;;;;;4950794;29;20027;-51
2023/11/29 00:46:57;;;;;;;72.90;10.65;;;6.50;95.30;;;;;;4966884;29;20035;-51
2023/11/29 00:49:23;;;;;;;53.55;10.95;;;6.50;95.30;;;;;;4966982;29;20419;-52
2023/11/29 00:51:48;;;;;;;60.13;10.68;;;6.50;95.30;;;;;;4966659;29;20035;-51
2023/11/29 00:54:14;;;;;;;55.40;11.05;;;6.50;95.30;;;;;;4967989;28;20059;-51
2023/11/29 00:56:40;;;;;;;58.45;10.32;;;6.50;95.30;;;;;;4967915;28;20041;-51
2023/11/29 00:59:05;;;;;;;33.90;8.38;;;6.40;95.30;;;;;;4967793;28;20090;-51
2023/11/29 01:01:31;;;;;;;50.65;9.60;;;6.40;95.30;;;;;;4967720;28;20031;-51
2023/11/29 01:03:56;;;;;;;44.80;8.50;;;6.40;95.30;;;;;;4966783;29;20043;-51
2023/11/29 01:06:22;;;;;;;59.70;9.93;;;6.40;95.30;;;;;;4934641;29;20030;-52
2023/11/29 01:08:48;;;;;;;50.00;9.95;;;6.40;95.30;;;;;;4950590;29;20051;-51
2023/11/29 01:11:13;;;;;;;53.55;9.82;;;6.30;95.20;;;;;;4967666;28;20027;-51
2023/11/29 01:13:39;;;;;;;48.90;9.40;;;6.30;95.20;;;;;;4967942;28;20027;-51
2023/11/29 01:16:04;;;;;;;60.72;10.18;;;6.30;95.30;;;;;;4950667;29;20038;-51
2023/11/29 01:18:32;;;;;;;41.22;8.30;;;6.30;95.30;;;;;;4966281;29;20035;-52
2023/11/29 01:20:58;;;;;;;50.30;9.68;;;6.30;95.30;;;;;;4967793;28;20032;-51
2023/11/29 01:23:24;;;;;;;46.38;8.40;;;6.30;95.30;;;;;;4967888;28;20027;-51
2023/11/29 01:25:49;;;;;;;41.90;8.07;;;6.30;95.30;;;;;;4966326;29;20023;-51
2023/11/29 01:28:15;;;;;;;43.85;8.55;;;6.30;95.30;;;;;;4950296;29;20036;-51
2023/11/29 01:30:40;;;;;;;55.55;10.15;;;6.30;95.30;;;;;;4966501;29;20050;-52
2023/11/29 01:33:06;;;;;;;44.08;8.88;;;6.30;95.30;;;;;;4966545;29;20035;-52
2023/11/29 01:35:31;;;;;;;44.55;7.68;;;6.20;95.20;;;;;;4950338;29;20038;-51
2023/11/29 01:37:58;;;;;;;36.83;8.48;;;6.20;95.30;;;;;;4967194;28;20044;-52
2023/11/29 01:40:23;;;;;;;39.60;8.15;;;6.10;95.30;;;;;;4966374;29;20027;-51
2023/11/29 01:42:49;;;;;;;40.65;8.70;;;6.20;95.30;;;;;;4967672;28;20038;-51
2023/11/29 01:45:15;;;;;;;34.40;8.40;;;6.20;95.30;;;;;;4950262;29;20023;-51
2023/11/29 01:47:40;;;;;;;33.03;7.72;;;6.10;95.30;;;;;;4952591;29;20035;-51
2023/11/29 01:50:08;;;;;;;37.38;8.27;;;6.10;95.30;;;;;;4971082;28;20051;-51
2023/11/29 01:52:34;;;;;;;36.05;7.32;;;6.10;95.30;;;;;;4953836;29;20035;-52
2023/11/29 01:55:00;;;;;;;31.40;7.25;;;6.10;95.30;;;;;;4969985;29;20023;-51
2023/11/29 01:57:25;;;;;;;30.52;7.10;;;6.10;95.30;;;;;;4969768;29;20028;-51
2023/11/29 01:59:51;;;;;;;29.38;7.35;;;6.10;95.30;;;;;;4969876;29;20098;-51
2023/11/29 02:02:17;;;;;;;37.33;7.07;;;6.00;95.30;;;;;;4954316;29;20027;-52
2023/11/29 02:04:42;;;;;;;40.75;8.13;;;6.10;95.40;;;;;;4969797;29;20038;-51
2023/11/29 02:07:10;;;;;;;32.38;7.28;;;6.10;95.30;;;;;;4953625;29;20066;-51
2023/11/29 02:09:35;;;;;;;33.42;7.30;;;6.00;95.40;;;;;;4953624;29;20059;-51
2023/11/29 02:12:01;;;;;;;32.55;7.03;;;6.00;95.40;;;;;;4953361;29;20035;-51
2023/11/29 02:14:26;;;;;;;26.42;7.15;;;6.00;95.40;;;;;;4953549;29;20095;-51
2023/11/29 02:16:52;;;;;;;32.03;7.35;;;6.00;95.40;;;;;;4970614;28;20118;-52
2023/11/29 02:19:17;;;;;;;38.65;7.55;;;6.00;95.40;;;;;;4953375;29;20043;-51
2023/11/29 02:21:43;;;;;;;33.42;8.27;;;6.00;95.40;;;;;;4970107;29;20027;-51
2023/11/29 02:24:12;;;;;;;35.20;7.82;;;6.00;95.30;;;;;;4953562;29;20087;-52
2023/11/29 02:26:38;;;;;;;22.92;6.75;;;6.00;95.30;;;;;;4953698;29;20028;-51
2023/11/29 02:29:03;;;;;;;34.60;7.72;;;6.00;95.30;;;;;;4969110;28;20118;-51
2023/11/29 02:31:29;;;;;;;25.42;7.45;;;6.00;95.20;;;;;;4969100;29;20027;-52
2023/11/29 02:33:54;;;;;;;28.40;7.65;;;6.00;95.20;;;;;;4970505;28;20035;-51
2023/11/29 02:36:20;;;;;;;22.95;6.40;;;6.00;95.20;;;;;;4969025;29;20038;-51
2023/11/29 02:38:46;;;;;;;24.42;6.68;;;6.00;95.10;;;;;;4968920;29;20035;-52
2023/11/29 02:41:11;;;;;;;25.13;6.82;;;5.90;95.10;;;;;;4952774;29;20091;-51
2023/11/29 02:43:37;;;;;;;27.45;6.97;;;5.90;95.00;;;;;;4969124;29;20031;-51
2023/11/29 02:46:02;;;;;;;24.77;7.00;;;5.90;95.00;;;;;;4968897;29;20038;-51
2023/11/29 02:48:28;;;;;;;24.30;6.68;;;5.90;94.90;;;;;;4970206;28;20031;-52
2023/11/29 02:50:53;;;;;;;23.70;7.68;;;5.90;94.90;;;;;;4970065;28;20038;-51
2023/11/29 02:53:19;;;;;;;25.05;7.25;;;5.90;94.80;;;;;;4968814;29;20066;-51
2023/11/29 02:55:45;;;;;;;20.15;6.75;;;5.90;94.80;;;;;;4969818;28;20031;-51
2023/11/29 02:58:10;;;;;;;25.23;6.68;;;5.90;94.90;;;;;;4969057;28;20055;-51
2023/11/29 03:00:36;;;;;;;26.42;7.95;;;5.90;94.90;;;;;;4968562;29;20034;-51
2023/11/29 03:03:01;;;;;;;31.08;7.07;;;5.90;94.90;;;;;;4968613;29;20054;-50
2023/11/29 03:05:27;;;;;;;19.55;7.63;;;5.90;95.00;;;;;;4968658;29;20381;-52
2023/11/29 03:07:52;;;;;;;18.42;7.03;;;5.90;95.00;;;;;;4969668;28;20459;-52
2023/11/29 03:10:18;;;;;;;21.13;7.20;;;5.90;94.90;;;;;;4969586;28;20035;-52
2023/11/29 03:12:43;;;;;;;21.08;7.47;;;5.90;94.90;;;;;;4952364;29;20031;-51
2023/11/29 03:15:09;;;;;;;18.42;7.03;;;5.80;94.70;;;;;;4968582;29;20053;-51
2023/11/29 03:17:35;;;;;;;22.98;6.72;;;5.80;94.50;;;;;;4968285;29;20139;-51
2023/11/29 03:20:01;;;;;;;35.60;7.28;;;5.90;94.60;;;;;;4968498;29;20039;-51
2023/11/29 03:22:27;;;;;;;16.20;7.45;;;5.80;94.50;;;;;;4968156;28;20063;-52
2023/11/29 03:24:53;;;;;;;17.23;7.40;;;5.80;94.40;;;;;;4969531;28;20028;-52
2023/11/29 03:27:21;;;;;;;23.20;7.72;;;5.80;94.30;;;;;;4969382;28;20091;-51
2023/11/29 03:29:47;;;;;;;16.42;7.65;;;5.80;94.40;;;;;;4952726;29;20050;-51
2023/11/29 03:32:12;;;;;;;16.92;7.03;;;5.80;94.30;;;;;;4968033;29;20169;-51
2023/11/29 03:34:38;;;;;;;19.48;8.32;;;5.90;94.30;;;;;;4969313;28;20062;-51
2023/11/29 03:37:04;;;;;;;22.92;8.18;;;5.80;94.40;;;;;;4968038;29;20039;-51
2023/11/29 03:39:29;;;;;;;23.98;6.80;;;5.80;94.40;;;;;;4968828;29;20031;-51
2023/11/29 03:41:55;;;;;;;18.25;7.35;;;5.70;94.40;;;;;;4969202;28;20488;-51
2023/11/29 03:44:21;;;;;;;14.07;6.55;;;5.70;94.40;;;;;;4967825;29;20082;-52
2023/11/29 03:46:46;;;;;;;20.65;7.80;;;5.70;94.40;;;;;;4967631;29;20087;-51
2023/11/29 03:49:12;;;;;;;15.75;6.85;;;5.70;94.40;;;;;;4967849;29;20047;-51
2023/11/29 03:51:37;;;;;;;18.75;6.95;;;5.70;94.40;;;;;;4968924;28;20066;-51
2023/11/29 03:54:03;;;;;;;16.42;7.00;;;5.70;94.30;;;;;;4969119;28;20070;-51
2023/11/29 03:56:29;;;;;;;19.90;7.22;;;5.70;94.30;;;;;;4967592;29;20029;-52
2023/11/29 03:58:54;;;;;;;15.43;7.10;;;5.60;94.30;;;;;;4968154;29;20027;-51
2023/11/29 04:01:20;;;;;;;13.30;5.80;;;5.70;94.50;;;;;;4951465;29;20035;-52
2023/11/29 04:03:45;;;;;;;15.60;6.22;;;5.70;94.40;;;;;;4951641;29;20055;-51
2023/11/29 04:06:22;;;;;;;14.48;5.40;;;5.70;94.20;;;;;;4967522;29;20027;-51
2023/11/29 04:08:47;;;;;;;16.23;5.95;;;5.60;94.20;;;;;;4968400;29;20035;-52
2023/11/29 04:11:13;;;;;;;14.73;6.03;;;5.60;94.20;;;;;;4966976;28;20031;-51
2023/11/29 04:13:39;;;;;;;12.07;5.55;;;5.70;94.20;;;;;;4951398;29;20063;-51
2023/11/29 04:16:04;;;;;;;16.67;5.72;;;5.70;94.20;;;;;;4968519;28;20023;-51
2023/11/29 04:18:30;;;;;;;20.73;5.85;;;5.60;94.20;;;;;;4967223;29;20042;-51
2023/11/29 04:21:00;;;;;;;17.48;6.18;;;5.60;94.20;;;;;;4968455;28;20062;-51
2023/11/29 04:23:25;;;;;;;16.17;6.13;;;5.70;94.20;;;;;;4968679;28;20030;-52
2023/11/29 04:25:51;;;;;;;15.60;6.82;;;5.60;94.20;;;;;;4968446;28;20027;-51
2023/11/29 04:28:17;;;;;;;13.40;8.15;;;5.60;94.30;;;;;;4967103;29;20062;-52
2023/11/29 04:30:42;;;;;;;12.63;7.30;;;5.60;94.30;;;;;;4968392;28;20031;-51
2023/11/29 04:33:08;;;;;;;15.13;7.47;;;5.60;94.20;;;;;;4950937;29;20031;-51
2023/11/29 04:35:34;;;;;;;12.43;7.82;;;5.60;94.20;;;;;;4951142;29;20126;-51
2023/11/29 04:37:59;;;;;;;15.60;7.63;;;5.60;94.20;;;;;;4967949;28;20121;-51
2023/11/29 04:40:25;;;;;;;17.05;7.70;;;5.60;94.60;;;;;;4967819;28;20046;-51
2023/11/29 04:42:50;;;;;;;8.88;6.53;;;5.60;94.30;;;;;;4966769;29;20031;-51
2023/11/29 04:45:16;;;;;;;13.27;7.07;;;5.60;94.30;;;;;;4968096;28;20082;-51
2023/11/29 04:47:41;;;;;;;16.90;7.13;;;5.60;94.30;;;;;;4935102;29;20472;-51
2023/11/29 04:50:07;;;;;;;11.27;6.55;;;5.60;94.20;;;;;;4968046;28;20023;-52
2023/11/29 04:52:33;;;;;;;13.32;7.20;;;5.60;94.20;;;;;;4967945;28;20139;-51
2023/11/29 04:54:59;;;;;;;11.40;6.78;;;5.60;94.30;;;;;;4966794;29;20027;-51
2023/11/29 04:57:24;;;;;;;10.30;6.13;;;5.60;94.30;;;;;;4950833;29;20078;-51
2023/11/29 04:59:50;;;;;;;10.52;6.82;;;5.60;94.20;;;;;;4967865;28;20100;-51
2023/11/29 05:02:16;;;;;;;12.32;6.45;;;5.60;94.30;;;;;;4966569;29;20039;-51
2023/11/29 05:04:41;;;;;;;9.70;6.30;;;5.60;94.20;;;;;;4950824;29;20054;-51
2023/11/29 05:07:07;;;;;;;8.48;5.32;;;5.60;94.20;;;;;;4950657;29;20035;-51
2023/11/29 05:09:32;;;;;;;9.68;6.40;;;5.60;94.20;;;;;;4967893;28;20039;-51
2023/11/29 05:11:58;;;;;;;7.82;5.63;;;5.60;94.20;;;;;;4966846;29;20035;-51
2023/11/29 05:14:24;;;;;;;11.80;5.85;;;5.60;94.30;;;;;;4968038;29;20492;-51
2023/11/29 05:16:50;;;;;;;11.65;6.18;;;5.60;94.30;;;;;;4968063;28;20038;-51
2023/11/29 05:19:15;;;;;;;8.93;5.85;;;5.60;94.40;;;;;;4966696;29;20429;-51
2023/11/29 05:21:41;;;;;;;12.35;6.55;;;5.60;94.30;;;;;;4951108;29;20035;-52
2023/11/29 05:24:07;;;;;;;7.68;5.28;;;5.60;94.20;;;;;;4971467;28;20058;-51
2023/11/29 05:26:33;;;;;;;8.43;5.13;;;5.60;94.30;;;;;;4969623;28;20042;-51
2023/11/29 05:29:00;;;;;;;15.80;6.13;;;5.60;94.20;;;;;;4967861;29;20114;-51
2023/11/29 05:31:25;;;;;;;21.60;6.38;;;5.60;94.20;;;;;;4985952;28;20038;-51
2023/11/29 05:33:52;;;;;;;20.33;5.60;;;5.60;94.20;;;;;;4985299;28;20046;-51
2023/11/29 05:36:19;;;;;;;31.55;6.60;;;5.60;94.00;;;;;;4971415;28;20034;-52
2023/11/29 05:38:44;;;;;;;40.85;8.00;;;5.60;93.90;;;;;;4985882;28;20043;-51
2023/11/29 05:41:13;;;;;;;16.85;6.18;;;5.50;93.80;;;;;;4971093;28;20094;-51
2023/11/29 05:43:38;;;;;;;21.13;6.00;;;5.60;93.90;;;;;;4985554;28;20042;-51
2023/11/29 05:46:04;;;;;;;40.22;8.13;;;5.50;93.90;;;;;;4986099;28;20023;-52
2023/11/29 05:48:30;;;;;;;133.85;16.55;;;5.50;93.90;;;;;;4971110;28;20023;-51
2023/11/29 05:50:55;;;;;;;131.20;17.00;;;5.50;93.90;;;;;;4986380;28;20062;-52
2023/11/29 05:53:23;;;;;;;93.22;11.15;;;5.50;94.00;;;;;;4985933;28;20031;-51
2023/11/29 05:55:48;;;;;;;52.67;10.75;;;5.50;94.00;;;;;;4971037;28;20032;-51
2023/11/29 05:58:14;;;;;;;39.42;8.80;;;5.50;94.00;;;;;;4985887;28;20045;-51
2023/11/29 06:00:39;;;;;;;59.53;9.25;;;5.50;94.10;;;;;;4985913;28;20119;-51
2023/11/29 06:03:06;;;;;;;50.45;9.20;;;5.60;94.10;;;;;;4970876;28;20054;-51
2023/11/29 06:05:32;;;;;;;54.25;8.15;;;5.50;94.10;;;;;;4985760;28;20047;-51
2023/11/29 06:07:57;;;;;;;52.53;10.70;;;5.60;94.10;;;;;;4985692;28;20078;-51
2023/11/29 06:10:23;;;;;;;66.03;8.70;;;5.60;94.20;;;;;;4970851;28;20058;-51
2023/11/29 06:12:48;;;;;;;40.90;8.27;;;5.60;94.20;;;;;;4985543;28;20023;-51
2023/11/29 06:15:14;;;;;;;42.97;8.40;;;5.60;94.20;;;;;;4970967;28;20043;-51
2023/11/29 06:17:40;;;;;;;49.75;8.65;;;5.50;94.20;;;;;;4985438;28;20054;-51
2023/11/29 06:20:09;;;;;;;37.45;7.22;;;5.60;94.60;;;;;;4970489;28;20043;-51
2023/11/29 06:22:35;;;;;;;32.92;7.90;;;5.60;94.20;;;;;;4970552;28;20027;-51
2023/11/29 06:25:00;;;;;;;34.55;7.82;;;5.50;94.30;;;;;;4969155;28;20032;-51
2023/11/29 06:27:29;;;;;;;40.65;7.80;;;5.50;94.30;;;;;;4985229;28;20067;-52
2023/11/29 06:29:55;;;;;;;35.97;7.47;;;5.50;94.30;;;;;;4970529;28;20031;-52
2023/11/29 06:32:22;;;;;;;57.72;9.68;;;5.60;94.40;;;;;;4985207;28;20049;-51
2023/11/29 06:34:47;;;;;;;36.63;7.82;;;5.50;94.40;;;;;;4969084;28;20028;-51
2023/11/29 06:37:13;;;;;;;30.85;7.80;;;5.50;94.40;;;;;;4970094;28;20039;-51
2023/11/29 06:39:39;;;;;;;41.85;7.57;;;5.60;94.50;;;;;;4985246;28;20027;-51
2023/11/29 06:42:04;;;;;;;42.08;9.38;;;5.60;94.50;;;;;;4970181;28;20349;-51
2023/11/29 06:44:30;;;;;;;44.65;7.13;;;5.60;94.60;;;;;;4984782;28;20035;-51
2023/11/29 06:46:57;;;;;;;35.67;7.38;;;5.60;94.60;;;;;;4983267;28;20023;-51
2023/11/29 06:49:25;;;;;;;35.28;7.90;;;5.60;94.60;;;;;;4982951;28;20027;-51
2023/11/29 06:51:51;;;;;;;26.55;7.18;;;5.60;94.60;;;;;;4982557;28;20096;-51
2023/11/29 06:54:18;;;;;;;34.80;7.45;;;5.60;94.60;;;;;;4967971;28;20039;-52
2023/11/29 06:56:43;;;;;;;34.25;7.13;;;5.60;94.70;;;;;;4968075;29;20391;-51
2023/11/29 06:59:09;;;;;;;40.83;7.55;;;5.60;94.80;;;;;;4968330;29;20055;-51
2023/11/29 07:01:35;;;;;;;31.40;8.13;;;5.50;94.80;;;;;;4983964;28;20031;-51
2023/11/29 07:04:01;;;;;;;33.85;7.30;;;5.50;94.80;;;;;;4967545;29;20059;-51
2023/11/29 07:06:26;;;;;;;24.45;7.10;;;5.50;94.80;;;;;;4977772;28;20023;-51
2023/11/29 07:08:52;;;;;;;29.15;6.63;;;5.60;94.90;;;;;;4965439;29;20031;-52
2023/11/29 07:11:17;;;;;;;27.80;7.45;;;5.50;94.90;;;;;;4964418;29;20480;-51
2023/11/29 07:13:43;;;;;;;23.27;6.07;;;5.50;94.80;;;;;;4966190;28;20056;-51
2023/11/29 07:16:09;;;;;;;30.83;6.85;;;5.50;94.80;;;;;;4964465;29;20030;-51
2023/11/29 07:18:36;;;;;;;24.42;6.30;;;5.50;94.70;;;;;;4964331;29;20444;-51
2023/11/29 07:21:03;;;;;;;23.20;6.57;;;5.60;94.70;;;;;;4965850;28;20054;-51
2023/11/29 07:23:29;;;;;;;28.05;6.43;;;5.50;94.90;;;;;;4966987;29;20102;-51
2023/11/29 07:25:55;;;;;;;23.85;6.25;;;5.50;94.60;;;;;;4967980;29;20031;-51
2023/11/29 07:28:20;;;;;;;30.58;6.25;;;5.50;94.80;;;;;;4969230;28;20024;-51
2023/11/29 07:30:46;;;;;;;29.95;6.05;;;5.50;94.60;;;;;;4967918;29;20035;-51
2023/11/29 07:33:11;;;;;;;26.27;5.60;;;5.50;94.60;;;;;;4963683;28;20055;-52
2023/11/29 07:35:37;;;;;;;21.33;5.90;;;5.50;94.50;;;;;;4976208;28;20036;-51
2023/11/29 07:38:03;;;;;;;32.38;6.13;;;5.50;94.50;;;;;;4947025;29;20087;-51
2023/11/29 07:40:28;;;;;;;24.40;5.63;;;5.50;94.50;;;;;;4964372;28;20032;-52
2023/11/29 07:42:54;;;;;;;20.10;5.00;;;5.50;94.50;;;;;;4980563;28;20163;-51
2023/11/29 07:45:19;;;;;;;23.20;5.28;;;5.50;94.40;;;;;;4980452;28;20024;-51
2023/11/29 07:47:45;;;;;;;16.48;5.55;;;5.50;94.40;;;;;;4980498;28;20039;-51
2023/11/29 07:50:13;;;;;;;19.17;4.40;;;5.60;94.40;;;;;;4949590;29;20038;-51
2023/11/29 07:52:39;;;;;;;22.80;5.10;;;5.50;94.40;;;;;;4979857;28;20031;-51
2023/11/29 07:55:05;;;;;;;16.73;5.53;;;5.60;94.30;;;;;;4949834;28;20028;-52
2023/11/29 07:57:31;;;;;;;24.10;6.22;;;5.60;94.30;;;;;;4980306;28;20028;-51
2023/11/29 07:59:57;;;;;;;17.80;4.70;;;5.60;94.30;;;;;;4949578;28;20034;-51
2023/11/29 08:02:23;;;;;;;22.80;5.40;;;5.60;94.30;;;;;;4949251;29;20039;-51
2023/11/29 08:04:48;;;;;;;32.33;5.85;;;5.60;94.30;;;;;;4980194;28;20023;-51
2023/11/29 08:07:14;;;;;;;100.13;12.38;;;5.60;94.30;;;;;;4980070;28;20381;-51
2023/11/29 08:09:39;;;;;;;39.67;6.60;;;5.60;94.30;;;;;;4963911;28;20056;-51
2023/11/29 08:12:05;;;;;;;33.40;6.40;;;5.60;94.20;;;;;;4979966;28;20511;-51
2023/11/29 08:14:32;;;;;;;17.45;5.57;;;5.60;94.10;;;;;;4949151;29;20035;-52
2023/11/29 08:16:58;;;;;;;27.40;5.05;;;5.60;94.10;;;;;;4949149;29;20050;-51
2023/11/29 08:19:25;;;;;;;15.82;4.80;;;5.60;94.10;;;;;;4979841;28;20031;-51
2023/11/29 08:21:50;;;;;;;16.45;4.40;;;5.70;94.00;;;;;;4949212;28;20032;-51
2023/11/29 08:24:16;;;;;;;24.95;5.68;;;5.70;93.90;;;;;;4949066;29;20034;-51
2023/11/29 08:26:42;;;;;;;28.25;5.72;;;5.70;93.90;;;;;;4980059;28;20543;-51
2023/11/29 08:29:07;;;;;;;20.48;4.57;;;5.70;93.90;;;;;;4979948;28;20063;-51
2023/11/29 08:31:33;;;;;;;27.65;6.45;;;5.70;93.90;;;;;;4979668;28;20114;-52
2023/11/29 08:33:58;;;;;;;28.17;5.07;;;5.70;93.80;;;;;;4949122;28;20035;-52
2023/11/29 08:36:24;;;;;;;27.95;5.50;;;5.70;93.80;;;;;;4950133;29;20086;-51
2023/11/29 08:38:51;;;;;;;30.10;6.65;;;5.70;93.90;;;;;;4980255;28;20055;-52
2023/11/29 08:41:17;;;;;;;313.83;26.35;;;5.70;93.90;;;;;;4989839;28;20483;-52
2023/11/29 08:43:43;;;;;;;259.00;24.73;;;5.70;93.90;;;;;;4974025;28;20063;-51
2023/11/29 08:46:08;;;;;;;64.60;9.55;;;5.80;94.20;;;;;;4977276;28;20037;-51
2023/11/29 08:48:34;;;;;;;37.70;5.95;;;5.80;93.90;;;;;;4966590;28;20034;-52
2023/11/29 08:50:59;;;;;;;34.58;6.05;;;5.80;93.80;;;;;;4974715;28;20055;-51
2023/11/29 08:53:25;;;;;;;32.88;5.95;;;5.80;94.10;;;;;;4964286;28;20109;-52
2023/11/29 08:55:50;;;;;;;30.95;5.63;;;5.80;93.80;;;;;;4967372;28;20046;-52
2023/11/29 08:58:17;;;;;;;27.95;4.70;;;5.80;93.70;;;;;;4969364;28;20027;-52
2023/11/29 09:00:43;;;;;;;33.08;5.70;;;5.80;93.70;;;;;;4974689;28;20727;-52
2023/11/29 09:03:11;;;;;;;39.97;5.57;;;5.80;93.70;;;;;;4964066;28;20023;-51
2023/11/29 09:05:40;;;;;;;22.30;4.90;;;5.80;93.70;;;;;;4965119;29;20102;-51
2023/11/29 09:08:05;;;;;;;34.17;5.43;;;5.80;93.60;;;;;;4977721;28;20118;-52
2023/11/29 09:10:31;;;;;;;30.20;5.70;;;5.80;93.60;;;;;;4957874;29;20035;-52
2023/11/29 09:12:57;;;;;;;27.40;5.00;;;5.80;93.60;;;;;;4965799;28;20035;-51
2023/11/29 09:15:22;;;;;;;18.63;5.00;;;5.80;93.50;;;;;;4971199;28;20086;-51
2023/11/29 09:17:48;;;;;;;17.17;4.32;;;5.80;93.40;;;;;;4957221;28;20031;-52
2023/11/29 09:20:14;;;;;;;19.13;4.75;;;5.80;93.40;;;;;;4968101;28;20038;-51
2023/11/29 09:22:39;;;;;;;23.20;4.47;;;5.80;93.40;;;;;;4978626;28;20023;-51
2023/11/29 09:25:05;;;;;;;14.95;4.57;;;5.80;93.40;;;;;;4962123;29;20032;-52
2023/11/29 09:27:31;;;;;;;21.75;4.50;;;5.80;93.40;;;;;;4961792;29;20044;-51
2023/11/29 09:29:57;;;;;;;13.57;3.70;;;5.80;93.30;;;;;;4976345;28;20149;-51
2023/11/29 09:32:22;;;;;;;22.70;4.30;;;5.80;93.30;;;;;;4964369;28;20399;-51
2023/11/29 09:34:48;;;;;;;19.38;4.85;;;5.70;93.30;;;;;;4965256;29;20034;-51
2023/11/29 09:37:13;;;;;;;28.38;4.68;;;5.70;93.30;;;;;;4980489;28;20606;-51
2023/11/29 09:39:39;;;;;;;12.02;4.47;;;5.70;93.30;;;;;;4977719;28;20032;-52
2023/11/29 09:42:05;;;;;;;24.25;5.82;;;5.80;93.40;;;;;;4958905;28;20032;-51
2023/11/29 09:44:32;;;;;;;25.42;4.78;;;5.80;93.40;;;;;;4980189;28;20042;-52
2023/11/29 09:46:58;;;;;;;18.17;4.00;;;5.80;93.50;;;;;;4980933;28;20020;-52
2023/11/29 09:49:24;;;;;;;20.30;4.32;;;5.80;93.40;;;;;;4964257;29;20027;-51
2023/11/29 09:51:50;;;;;;;36.10;5.10;;;5.80;93.30;;;;;;4978149;28;20031;-51
2023/11/29 09:54:15;;;;;;;30.45;5.80;;;5.80;93.20;;;;;;4977777;28;20032;-52
2023/11/29 09:56:41;;;;;;;53.72;6.40;;;5.80;93.30;;;;;;4981116;28;20155;-52
2023/11/29 09:59:07;;;;;;;36.97;5.55;;;5.80;93.40;;;;;;4980357;28;20122;-51
2023/11/29 10:01:45;;;;;;;41.45;5.18;;;5.80;93.30;;;;;;4980285;28;20396;-52
2023/11/29 10:04:12;;;;;;;46.10;6.05;;;5.90;93.40;;;;;;4986692;28;20031;-51
2023/11/29 10:06:37;;;;;;;28.40;5.90;;;5.90;93.40;;;;;;4962890;28;20106;-52
2023/11/29 10:09:11;;;;;;;29.98;5.40;;;5.90;93.40;;;;;;4984745;28;20097;-51
2023/11/29 10:11:37;;;;;;;43.08;5.70;;;5.90;93.30;;;;;;4985346;28;20031;-52
2023/11/29 10:14:05;;;;;;;34.33;5.30;;;6.00;93.40;;;;;;4985586;28;20065;-51
2023/11/29 10:16:31;;;;;;;39.15;6.15;;;5.90;93.30;;;;;;4984770;28;20027;-51
2023/11/29 10:19:06;;;;;;;27.20;4.82;;;5.90;93.40;;;;;;4968282;29;20037;-52
2023/11/29 10:21:32;;;;;;;23.98;5.20;;;6.00;93.30;;;;;;4981877;28;20027;-51
2023/11/29 10:23:57;;;;;;;29.45;6.90;;;6.00;93.60;;;;;;4983298;28;20049;-52
2023/11/29 10:26:24;;;;;;;43.65;6.10;;;6.00;93.30;;;;;;4982279;28;20015;-52
2023/11/29 10:28:51;;;;;;;39.13;6.07;;;6.00;93.20;;;;;;4965087;28;20087;-51
2023/11/29 10:31:17;;;;;;;44.70;7.18;;;6.00;93.20;;;;;;4983799;28;20028;-52
2023/11/29 10:33:43;;;;;;;33.28;5.65;;;6.00;93.20;;;;;;4984051;28;20499;-51
2023/11/29 10:36:09;;;;;;;39.25;6.22;;;6.10;93.20;;;;;;4984033;28;20023;-51
2023/11/29 10:38:42;;;;;;;86.18;9.45;;;6.00;93.10;;;;;;4987503;28;20058;-51
2023/11/29 10:41:07;;;;;;;64.30;10.15;;;6.00;93.20;;;;;;4964035;29;20404;-52
2023/11/29 10:43:34;;;;;;;67.53;9.93;;;6.00;93.20;;;;;;4982949;28;20023;-51
2023/11/29 10:46:07;;;;;;;64.70;9.50;;;6.10;93.20;;;;;;4968729;28;20034;-51
2023/11/29 10:48:33;;;;;;;72.80;10.38;;;6.10;93.20;;;;;;4968554;28;20046;-51
2023/11/29 10:50:58;;;;;;;81.60;9.10;;;6.10;93.20;;;;;;4981120;28;20031;-51
2023/11/29 10:53:24;;;;;;;68.50;9.73;;;6.10;93.20;;;;;;4981616;28;20055;-51
2023/11/29 10:55:50;;;;;;;60.70;8.20;;;6.10;93.20;;;;;;4982366;28;20074;-51
2023/11/29 10:58:31;;;;;;;78.78;8.68;;;6.10;93.10;;;;;;4983093;28;20095;-52
2023/11/29 11:00:57;;;;;;;49.88;8.10;;;6.10;93.10;;;;;;4967600;29;20062;-51
2023/11/29 11:03:42;;;;;;;75.20;9.82;;;6.20;93.00;;;;;;4965001;29;20094;-51
2023/11/29 11:06:23;;;;;;;57.97;8.60;;;6.10;93.00;;;;;;4965051;28;20038;-52
2023/11/29 11:08:49;;;;;;;77.47;10.38;;;6.10;93.00;;;;;;4968732;28;20031;-51
2023/11/29 11:11:45;;;;;;;103.85;12.73;;;6.20;93.10;;;;;;4965287;29;20031;-52
2023/11/29 11:14:30;;;;;;;108.50;12.17;;;6.20;93.20;;;;;;4960589;28;20046;-62
2023/11/29 11:17:13;;;;;;;108.83;12.90;;;6.20;93.10;;;;;;4974913;28;20039;-61
2023/11/29 11:19:46;;;;;;;82.60;11.52;;;6.20;93.10;;;;;;4949127;28;20476;-61
2023/11/29 11:22:16;;;;;;;90.22;11.23;;;6.20;93.10;;;;;;4962770;28;20047;-62
2023/11/29 11:25:05;;;;;;;124.97;13.98;;;6.20;93.10;;;;;;4970674;28;20123;-62
2023/11/29 11:27:35;;;;;;;108.65;13.45;;;6.30;93.20;;;;;;4967332;28;20023;-62
2023/11/29 11:30:14;;;;;;;108.15;14.40;;;6.30;93.30;;;;;;4977766;28;20038;-62
2023/11/29 11:32:42;;;;;;;122.65;15.38;;;6.30;93.30;;;;;;4963060;28;20043;-52
2023/11/29 11:35:17;;;;;;;141.77;16.25;;;6.30;93.20;;;;;;4968208;28;20024;-51
2023/11/29 11:37:47;;;;;;;125.10;14.98;;;6.40;93.20;;;;;;4962565;28;20042;-51
2023/11/29 11:40:13;;;;;;;133.73;15.40;;;6.30;93.10;;;;;;4979920;28;20031;-51
2023/11/29 11:42:42;;;;;;;102.45;12.43;;;6.40;93.00;;;;;;4967137;28;20030;-52
2023/11/29 11:45:08;;;;;;;181.98;20.63;;;6.40;92.90;;;;;;4982678;28;20082;-51
2023/11/29 11:47:35;;;;;;;175.40;17.42;;;6.40;92.90;;;;;;4963369;28;20027;-51
2023/11/29 11:50:00;;;;;;;113.68;15.65;;;6.40;92.90;;;;;;4978059;28;20086;-51
2023/11/29 11:52:26;;;;;;;100.70;12.63;;;6.40;92.90;;;;;;4982388;28;20034;-51
2023/11/29 11:54:52;;;;;;;150.63;16.02;;;6.40;92.90;;;;;;4965948;28;20035;-52
2023/11/29 11:57:17;;;;;;;114.80;14.02;;;6.40;92.90;;;;;;4978966;28;20035;-52
2023/11/29 11:59:43;;;;;;;138.40;13.98;;;6.40;93.00;;;;;;4988666;28;20113;-51
2023/11/29 12:02:09;;;;;;;134.60;15.07;;;6.40;93.00;;;;;;4979860;28;20058;-50
2023/11/29 12:04:35;;;;;;;133.40;15.65;;;6.50;93.00;;;;;;4978671;28;20039;-51
2023/11/29 12:07:02;;;;;;;140.07;16.42;;;6.40;93.00;;;;;;4969675;28;20058;-51
2023/11/29 12:09:28;;;;;;;142.48;19.73;;;6.40;93.00;;;;;;4972559;28;20050;-52
2023/11/29 12:12:12;;;;;;;157.13;17.48;;;6.40;93.00;;;;;;4981138;28;20031;-52
2023/11/29 12:14:45;;;;;;;119.32;15.90;;;6.40;93.10;;;;;;4981890;28;20039;-52
2023/11/29 12:17:12;;;;;;;149.73;18.27;;;6.50;93.00;;;;;;4965917;28;20098;-51
2023/11/29 12:19:40;;;;;;;185.57;19.50;;;6.50;93.10;;;;;;4977541;28;20036;-52
2023/11/29 12:22:06;;;;;;;148.05;17.25;;;6.50;93.10;;;;;;4976882;28;20035;-52
2023/11/29 12:24:47;;;;;;;146.30;17.20;;;6.50;93.00;;;;;;4976596;28;20090;-51
2023/11/29 12:27:14;;;;;;;132.52;16.45;;;6.50;93.00;;;;;;4962002;29;20266;-51
2023/11/29 12:29:47;;;;;;;139.73;17.20;;;6.50;93.00;;;;;;4959543;29;20037;-52
2023/11/29 12:32:12;;;;;;;172.30;17.65;;;6.50;93.10;;;;;;4976458;28;20522;-51
2023/11/29 12:34:38;;;;;;;132.93;16.15;;;6.50;93.10;;;;;;4974971;28;20031;-52
2023/11/29 12:37:04;;;;;;;114.32;14.48;;;6.50;93.10;;;;;;4959038;28;20054;-52
2023/11/29 12:39:30;;;;;;;133.02;14.98;;;6.50;93.10;;;;;;4932814;29;20024;-52